createdAt,value
2022-12-24T00:01:03.062Z,86.04
2022-12-24T00:03:30.330Z,86.24
2022-12-24T00:05:57.578Z,86.41
2022-12-24T00:08:25.152Z,85.62
2022-12-24T00:10:53.677Z,86.20
2022-12-24T00:13:21.533Z,86.28
2022-12-24T00:15:56.279Z,86.12
2022-12-24T00:18:23.349Z,85.75
2022-12-24T00:20:51.048Z,85.14
2022-12-24T00:23:19.704Z,84.12
2022-12-24T00:25:55.469Z,83.88
2022-12-24T00:28:22.857Z,84.66
2022-12-24T00:30:49.547Z,84.86
2022-12-24T00:33:22.423Z,84.88
2022-12-24T00:35:52.846Z,85.00
2022-12-24T00:38:19.800Z,85.43
2022-12-24T00:40:46.518Z,87.54
2022-12-24T00:43:13.221Z,88.30
2022-12-24T00:45:40.422Z,87.66
2022-12-24T00:48:08.011Z,88.68
2022-12-24T00:50:34.762Z,89.16
2022-12-24T00:53:01.533Z,88.80
2022-12-24T00:55:29.890Z,88.50
2022-12-24T00:57:56.889Z,88.66
2022-12-24T01:00:23.916Z,88.53
2022-12-24T01:02:50.712Z,88.33
2022-12-24T01:05:17.730Z,87.35
2022-12-24T01:07:45.038Z,86.88
2022-12-24T01:10:13.888Z,87.20
2022-12-24T01:12:41.225Z,87.08
2022-12-24T01:15:09.786Z,87.76
2022-12-24T01:17:36.939Z,87.44
2022-12-24T01:20:06.280Z,86.90
2022-12-24T01:22:33.185Z,86.88
2022-12-24T01:24:59.884Z,86.64
2022-12-24T01:27:26.578Z,86.10
2022-12-24T01:29:53.839Z,86.52
2022-12-24T01:32:20.989Z,85.34
2022-12-24T01:34:47.708Z,85.31
2022-12-24T01:37:14.348Z,85.69
2022-12-24T01:39:41.065Z,85.09
2022-12-24T01:42:20.943Z,84.31
2022-12-24T01:44:51.440Z,83.49
2022-12-24T01:47:22.330Z,84.39
2022-12-24T01:49:53.650Z,84.43
2022-12-24T01:52:25.821Z,84.12
2022-12-24T01:54:58.186Z,83.32
2022-12-24T01:57:30.209Z,83.03
2022-12-24T02:00:01.810Z,82.55
2022-12-24T02:02:32.518Z,82.59
2022-12-24T02:05:06.139Z,83.36
2022-12-24T02:07:33.318Z,83.37
2022-12-24T02:10:01.492Z,83.26
2022-12-24T02:12:32.403Z,82.72
2022-12-24T02:14:59.704Z,82.73
2022-12-24T02:17:29.334Z,82.65
2022-12-24T02:20:20.179Z,81.95
2022-12-24T02:23:20.517Z,83.07
2022-12-24T02:25:50.302Z,82.51
2022-12-24T02:28:43.899Z,82.49
2022-12-24T02:31:20.947Z,81.64
2022-12-24T02:33:54.881Z,81.45
2022-12-24T02:36:54.477Z,81.38
2022-12-24T02:39:28.183Z,80.41
2022-12-24T02:41:58.573Z,80.60
2022-12-24T02:44:28.874Z,80.16
2022-12-24T02:46:59.094Z,80.29
2022-12-24T02:49:25.971Z,80.45
2022-12-24T02:51:52.570Z,80.60
2022-12-24T02:54:19.353Z,80.83
2022-12-24T02:56:54.425Z,79.75
2022-12-24T02:59:35.399Z,79.66
2022-12-24T03:02:14.377Z,79.76
2022-12-24T03:04:56.593Z,80.27
2022-12-24T03:07:46.708Z,80.79
2022-12-24T03:10:28.537Z,81.45
2022-12-24T03:13:08.205Z,80.87
2022-12-24T03:15:36.952Z,80.16
2022-12-24T03:18:05.946Z,80.20
2022-12-24T03:20:43.366Z,80.59
2022-12-24T03:23:10.660Z,80.07
2022-12-24T03:25:42.180Z,79.83
2022-12-24T03:28:12.269Z,79.15
2022-12-24T03:30:41.073Z,78.98
2022-12-24T03:33:07.976Z,78.83
2022-12-24T03:35:34.779Z,79.26
2022-12-24T03:38:01.591Z,79.91
2022-12-24T03:40:28.233Z,79.90
2022-12-24T03:42:54.904Z,78.92
2022-12-24T03:45:21.508Z,78.63
2022-12-24T03:47:48.193Z,78.68
2022-12-24T03:50:14.883Z,78.83
2022-12-24T03:52:41.659Z,78.56
2022-12-24T03:55:08.684Z,77.84
2022-12-24T03:57:35.462Z,78.97
2022-12-24T04:00:02.868Z,78.91
2022-12-24T04:02:39.041Z,78.99
2022-12-24T04:05:06.848Z,78.67
2022-12-24T04:07:33.844Z,78.25
2022-12-24T04:10:00.595Z,79.20
2022-12-24T04:12:27.256Z,79.55
2022-12-24T04:14:53.908Z,78.88
2022-12-24T04:17:20.591Z,79.29
2022-12-24T04:19:47.282Z,78.84
2022-12-24T04:22:13.905Z,79.74
2022-12-24T04:24:40.582Z,80.85
2022-12-24T04:27:07.206Z,81.34
2022-12-24T04:29:33.884Z,81.39
2022-12-24T04:32:00.617Z,81.48
2022-12-24T04:34:27.943Z,82.73
2022-12-24T04:36:54.588Z,83.87
2022-12-24T04:39:21.386Z,84.69
2022-12-24T04:41:48.054Z,85.68
2022-12-24T04:44:14.686Z,87.44
2022-12-24T04:46:41.353Z,88.08
2022-12-24T04:49:08.582Z,89.46
2022-12-24T04:51:35.252Z,89.84
2022-12-24T04:54:01.953Z,90.58
2022-12-24T04:56:31.559Z,90.73
2022-12-24T04:59:01.715Z,89.96
2022-12-24T05:01:30.751Z,89.07
2022-12-24T05:03:57.949Z,88.27
2022-12-24T05:06:29.281Z,88.49
2022-12-24T05:08:57.139Z,88.72
2022-12-24T05:11:24.381Z,88.29
2022-12-24T05:13:51.481Z,87.23
2022-12-24T05:16:20.651Z,86.88
2022-12-24T05:18:47.728Z,86.56
2022-12-24T05:21:19.469Z,86.99
2022-12-24T05:23:46.801Z,87.39
2022-12-24T05:26:30.252Z,87.11
2022-12-24T05:28:58.356Z,87.32
2022-12-24T05:31:26.714Z,87.13
2022-12-24T05:33:53.459Z,87.84
2022-12-24T05:36:20.577Z,87.81
2022-12-24T05:38:47.356Z,86.89
2022-12-24T05:41:13.940Z,87.39
2022-12-24T05:43:40.978Z,86.77
2022-12-24T05:46:13.677Z,85.83
2022-12-24T05:48:40.756Z,85.96
2022-12-24T05:51:09.677Z,85.57
2022-12-24T05:53:37.021Z,86.17
2022-12-24T05:56:11.631Z,85.47
2022-12-24T05:58:39.770Z,85.19
2022-12-24T06:01:07.376Z,84.34
2022-12-24T06:03:34.820Z,83.85
2022-12-24T06:06:05.726Z,84.15
2022-12-24T06:08:33.405Z,83.97
2022-12-24T06:11:02.741Z,83.32
2022-12-24T06:13:30.101Z,83.75
2022-12-24T06:16:01.455Z,83.71
2022-12-24T06:18:32.590Z,83.49
2022-12-24T06:21:00.100Z,83.39
2022-12-24T06:23:28.470Z,83.08
2022-12-24T06:25:57.310Z,82.60
2022-12-24T06:28:24.098Z,82.07
2022-12-24T06:30:53.639Z,83.24
2022-12-24T06:33:24.033Z,84.16
2022-12-24T06:35:50.661Z,83.56
2022-12-24T06:38:17.365Z,84.16
2022-12-24T06:40:46.388Z,83.82
2022-12-24T06:43:14.403Z,85.19
2022-12-24T06:45:45.484Z,85.94
2022-12-24T06:48:12.666Z,87.58
2022-12-24T06:50:39.561Z,86.67
2022-12-24T06:53:06.318Z,86.33
2022-12-24T06:55:33.149Z,86.56
2022-12-24T06:57:59.833Z,88.20
2022-12-24T07:00:26.474Z,87.71
2022-12-24T07:02:53.335Z,87.49
2022-12-24T07:05:20.028Z,86.25
2022-12-24T07:07:46.692Z,86.67
2022-12-24T07:10:15.682Z,87.22
2022-12-24T07:12:42.687Z,88.28
2022-12-24T07:15:10.386Z,89.13
2022-12-24T07:17:37.188Z,88.97
2022-12-24T07:20:05.131Z,89.83
2022-12-24T07:22:31.799Z,90.52
2022-12-24T07:24:58.529Z,90.88
2022-12-24T07:27:25.167Z,89.89
2022-12-24T07:29:51.767Z,89.08
2022-12-24T07:32:18.715Z,88.82
2022-12-24T07:34:45.307Z,89.19
2022-12-24T07:37:12.111Z,87.88
2022-12-24T07:39:38.799Z,88.04
2022-12-24T07:42:05.561Z,87.64
2022-12-24T07:44:32.198Z,88.39
2022-12-24T07:46:58.963Z,87.41
2022-12-24T07:49:25.745Z,88.22
2022-12-24T07:51:52.462Z,88.23
2022-12-24T07:54:19.317Z,87.37
2022-12-24T07:56:46.929Z,87.56
2022-12-24T07:59:14.000Z,87.26
2022-12-24T08:01:41.509Z,87.78
2022-12-24T08:04:08.466Z,87.63
2022-12-24T08:06:35.219Z,87.77
2022-12-24T08:09:01.873Z,87.62
2022-12-24T08:11:28.789Z,87.64
2022-12-24T08:13:55.441Z,87.14
2022-12-24T08:16:22.353Z,86.29
2022-12-24T08:18:49.084Z,86.54
2022-12-24T08:21:15.999Z,86.78
2022-12-24T08:23:42.786Z,87.01
2022-12-24T08:26:10.725Z,86.36
2022-12-24T08:28:37.787Z,86.01
2022-12-24T08:31:05.272Z,86.04
2022-12-24T08:33:31.976Z,85.84
2022-12-24T08:36:01.156Z,85.46
2022-12-24T08:38:27.867Z,85.93
2022-12-24T08:40:55.314Z,85.32
2022-12-24T08:43:22.005Z,85.42
2022-12-24T08:45:50.081Z,85.75
2022-12-24T08:48:17.271Z,85.76
2022-12-24T08:50:44.143Z,86.51
2022-12-24T08:53:11.427Z,86.37
2022-12-24T08:55:38.141Z,87.16
2022-12-24T08:58:04.931Z,87.01
2022-12-24T09:00:31.862Z,87.56
2022-12-24T09:02:58.667Z,87.14
2022-12-24T09:05:26.148Z,86.56
2022-12-24T09:07:53.367Z,86.59
2022-12-24T09:10:20.220Z,86.71
2022-12-24T09:12:46.984Z,86.95
2022-12-24T09:15:13.743Z,86.24
2022-12-24T09:17:40.338Z,86.93
2022-12-24T09:20:08.256Z,87.17
2022-12-24T09:22:36.684Z,87.36
2022-12-24T09:25:04.035Z,87.02
2022-12-24T09:27:31.501Z,86.29
2022-12-24T09:29:58.338Z,86.10
2022-12-24T09:32:25.043Z,86.40
2022-12-24T09:34:51.713Z,86.48
2022-12-24T09:37:18.401Z,85.97
2022-12-24T09:39:45.163Z,85.38
2022-12-24T09:42:41.034Z,86.53
2022-12-24T09:45:20.028Z,87.73
2022-12-24T09:47:50.607Z,86.69
2022-12-24T09:50:34.817Z,86.73
2022-12-24T09:53:06.675Z,86.75
2022-12-24T09:55:43.997Z,87.22
2022-12-24T09:58:28.465Z,86.40
2022-12-24T10:00:56.474Z,85.75
2022-12-24T10:03:23.339Z,86.19
2022-12-24T10:06:31.760Z,85.79
2022-12-24T10:09:03.178Z,86.02
2022-12-24T10:11:47.188Z,86.36
2022-12-24T10:14:51.779Z,86.63
2022-12-24T10:17:53.224Z,84.04
2022-12-24T10:20:25.934Z,84.19
2022-12-24T10:23:01.387Z,85.33
2022-12-24T10:25:40.497Z,85.04
2022-12-24T10:28:15.754Z,84.32
2022-12-24T10:30:44.739Z,84.20
2022-12-24T10:33:18.852Z,83.92
2022-12-24T10:35:52.685Z,83.29
2022-12-24T10:38:19.571Z,83.35
2022-12-24T10:40:50.106Z,82.57
2022-12-24T10:43:21.109Z,82.76
2022-12-24T10:45:51.489Z,82.57
2022-12-24T10:48:27.432Z,81.49
2022-12-24T10:51:06.650Z,81.96
2022-12-24T10:53:48.131Z,82.08
2022-12-24T10:56:18.583Z,83.42
2022-12-24T10:58:50.661Z,83.22
2022-12-24T11:01:17.822Z,81.46
2022-12-24T11:03:44.771Z,82.51
2022-12-24T11:06:13.039Z,83.56
2022-12-24T11:08:42.763Z,83.84
2022-12-24T11:11:13.768Z,84.25
2022-12-24T11:14:14.725Z,83.42
2022-12-24T11:16:50.519Z,84.02
2022-12-24T11:19:20.563Z,83.00
2022-12-24T11:21:47.194Z,83.34
2022-12-24T11:24:13.856Z,83.29
2022-12-24T11:26:43.469Z,83.74
2022-12-24T11:29:25.631Z,82.80
2022-12-24T11:32:09.905Z,81.94
2022-12-24T11:34:36.802Z,81.30
2022-12-24T11:37:16.022Z,81.20
2022-12-24T11:40:02.261Z,82.34
2022-12-24T11:42:38.307Z,83.24
2022-12-24T11:45:21.173Z,83.51
2022-12-24T11:47:47.846Z,81.82
2022-12-24T11:50:32.892Z,81.68
2022-12-24T11:53:07.123Z,81.99
2022-12-24T11:55:41.352Z,81.33
2022-12-24T11:58:26.321Z,81.09
2022-12-24T12:01:03.005Z,81.49
2022-12-24T12:03:39.941Z,81.12
2022-12-24T12:06:23.795Z,81.22
2022-12-24T12:08:56.274Z,81.56
2022-12-24T12:11:26.003Z,81.37
2022-12-24T12:13:56.572Z,81.68
2022-12-24T12:16:29.764Z,80.38
2022-12-24T12:19:07.472Z,80.79
2022-12-24T12:21:44.307Z,82.56
2022-12-24T12:24:19.775Z,81.61
2022-12-24T12:26:48.817Z,81.19
2022-12-24T12:29:21.197Z,81.40
2022-12-24T12:31:52.631Z,80.65
2022-12-24T12:34:26.467Z,80.26
2022-12-24T12:37:32.060Z,79.19
2022-12-24T12:39:58.892Z,80.03
2022-12-24T12:42:33.917Z,80.41
2022-12-24T12:45:25.097Z,78.64
2022-12-24T12:47:54.908Z,77.77
2022-12-24T12:50:40.536Z,78.73
2022-12-24T12:53:19.397Z,78.69
2022-12-24T12:56:16.189Z,79.25
2022-12-24T12:58:52.343Z,79.67
2022-12-24T13:01:52.293Z,79.51
2022-12-24T13:04:34.319Z,79.12
2022-12-24T13:07:03.572Z,79.94
2022-12-24T13:09:32.890Z,79.44
2022-12-24T13:12:11.910Z,80.11
2022-12-24T13:15:06.738Z,79.59
2022-12-24T13:18:02.160Z,80.45
2022-12-24T13:20:32.665Z,83.56
2022-12-24T13:23:12.199Z,84.55
2022-12-24T13:25:58.824Z,85.10
2022-12-24T13:28:25.507Z,86.13
2022-12-24T13:30:53.161Z,86.71
2022-12-24T13:33:43.183Z,86.88
2022-12-24T13:36:12.500Z,86.69
2022-12-24T13:38:45.692Z,86.41
2022-12-24T13:41:40.239Z,85.91
2022-12-24T13:44:07.616Z,84.69
2022-12-24T13:46:46.130Z,87.50
2022-12-24T13:49:19.673Z,88.21
2022-12-24T13:51:46.853Z,87.52
2022-12-24T13:54:18.542Z,87.27
2022-12-24T13:56:46.206Z,87.15
2022-12-24T13:59:26.134Z,86.56
2022-12-24T14:01:53.366Z,86.45
2022-12-24T14:04:29.327Z,86.09
2022-12-24T14:06:59.598Z,85.04
2022-12-24T14:09:28.634Z,85.45
2022-12-24T14:12:01.543Z,84.93
2022-12-24T14:14:32.328Z,84.12
2022-12-24T14:17:06.000Z,84.05
2022-12-24T14:19:42.411Z,83.68
2022-12-24T14:22:12.168Z,83.98
2022-12-24T14:24:43.437Z,83.17
2022-12-24T14:27:32.365Z,82.87
2022-12-24T14:30:02.985Z,82.60
2022-12-24T14:32:35.867Z,82.07
2022-12-24T14:35:15.406Z,81.94
2022-12-24T14:37:46.242Z,81.92
2022-12-24T14:40:20.367Z,82.59
2022-12-24T14:43:08.912Z,82.46
2022-12-24T14:45:47.405Z,82.09
2022-12-24T14:48:39.021Z,82.58
2022-12-24T14:51:30.455Z,82.55
2022-12-24T14:54:03.246Z,82.45
2022-12-24T14:56:29.952Z,81.46
2022-12-24T14:58:56.541Z,82.22
2022-12-24T15:01:29.463Z,83.00
2022-12-24T15:04:03.643Z,83.70
2022-12-24T15:06:34.600Z,83.48
2022-12-24T15:09:01.681Z,83.25
2022-12-24T15:11:28.646Z,83.51
2022-12-24T15:13:59.157Z,83.22
2022-12-24T15:16:30.538Z,82.83
2022-12-24T15:19:02.915Z,82.78
2022-12-24T15:21:33.567Z,81.72
2022-12-24T15:24:00.687Z,81.35
2022-12-24T15:26:33.153Z,81.29
2022-12-24T15:29:03.688Z,80.84
2022-12-24T15:31:31.426Z,80.76
2022-12-24T15:33:59.457Z,80.33
2022-12-24T15:36:30.966Z,80.41
2022-12-24T15:39:00.775Z,80.98
2022-12-24T15:41:35.988Z,80.63
2022-12-24T15:44:03.339Z,80.67
2022-12-24T15:46:31.845Z,80.92
2022-12-24T15:49:02.280Z,81.60
2022-12-24T15:51:33.913Z,81.81
2022-12-24T15:54:11.483Z,82.08
2022-12-24T15:56:42.390Z,82.48
2022-12-24T15:59:20.991Z,82.90
2022-12-24T16:01:48.689Z,83.08
2022-12-24T16:04:21.468Z,82.66
2022-12-24T16:06:53.407Z,82.82
2022-12-24T16:09:35.315Z,82.95
2022-12-24T16:12:12.057Z,82.83
2022-12-24T16:14:38.940Z,82.25
2022-12-24T16:17:23.060Z,81.59
2022-12-24T16:19:59.080Z,81.93
2022-12-24T16:22:26.488Z,82.10
2022-12-24T16:24:53.088Z,81.79
2022-12-24T16:27:19.788Z,81.16
2022-12-24T16:29:46.496Z,82.02
2022-12-24T16:32:33.206Z,81.27
2022-12-24T16:35:01.693Z,80.88
2022-12-24T16:37:28.360Z,80.53
2022-12-24T16:39:55.308Z,80.29
2022-12-24T16:42:21.952Z,80.20
2022-12-24T16:44:52.089Z,80.03
2022-12-24T16:47:22.091Z,79.64
2022-12-24T16:49:49.000Z,79.10
2022-12-24T16:52:19.160Z,78.46
2022-12-24T16:54:45.888Z,78.67
2022-12-24T16:57:12.963Z,79.04
2022-12-24T16:59:39.666Z,78.77
2022-12-24T17:02:14.009Z,79.09
2022-12-24T17:04:42.004Z,79.05
2022-12-24T17:07:10.735Z,81.40
2022-12-24T17:09:37.511Z,80.96
2022-12-24T17:12:04.660Z,80.70
2022-12-24T17:14:31.931Z,79.86
2022-12-24T17:16:58.678Z,80.25
2022-12-24T17:19:25.450Z,81.77
2022-12-24T17:21:52.173Z,82.40
2022-12-24T17:24:18.928Z,83.39
2022-12-24T17:26:45.918Z,83.25
2022-12-24T17:29:12.773Z,83.82
2022-12-24T17:31:39.500Z,84.37
2022-12-24T17:34:06.400Z,84.50
2022-12-24T17:36:33.110Z,84.35
2022-12-24T17:38:59.753Z,84.04
2022-12-24T17:41:26.418Z,83.61
2022-12-24T17:43:53.229Z,83.10
2022-12-24T17:46:22.576Z,82.27
2022-12-24T17:48:53.758Z,82.21
2022-12-24T17:51:26.918Z,81.30
2022-12-24T17:54:01.585Z,81.24
2022-12-24T17:56:33.570Z,80.62
2022-12-24T17:59:00.644Z,81.46
2022-12-24T18:01:30.792Z,81.73
2022-12-24T18:04:02.553Z,81.97
2022-12-24T18:06:29.431Z,81.46
2022-12-24T18:08:56.125Z,81.29
2022-12-24T18:11:49.208Z,80.37
2022-12-24T18:14:18.682Z,79.98
2022-12-24T18:16:49.340Z,80.61
2022-12-24T18:19:20.672Z,80.70
2022-12-24T18:21:51.977Z,81.02
2022-12-24T18:24:19.840Z,81.08
2022-12-24T18:26:49.481Z,81.30
2022-12-24T18:29:17.804Z,81.54
2022-12-24T18:31:45.932Z,82.26
2022-12-24T18:34:14.935Z,82.16
2022-12-24T18:36:51.145Z,81.99
2022-12-24T18:39:22.027Z,82.01
2022-12-24T18:41:49.088Z,81.04
2022-12-24T18:44:24.247Z,81.21
2022-12-24T18:46:51.946Z,81.26
2022-12-24T18:49:18.598Z,81.49
2022-12-24T18:51:45.270Z,80.92
2022-12-24T18:54:11.893Z,81.85
2022-12-24T18:56:38.586Z,81.00
2022-12-24T18:59:05.188Z,80.49
2022-12-24T19:01:34.363Z,80.09
2022-12-24T19:04:01.341Z,79.94
2022-12-24T19:06:30.836Z,79.96
2022-12-24T19:08:59.759Z,80.10
2022-12-24T19:11:29.129Z,80.10
2022-12-24T19:13:55.877Z,80.52
2022-12-24T19:16:22.956Z,79.48
2022-12-24T19:18:49.998Z,79.88
2022-12-24T19:21:18.803Z,79.59
2022-12-24T19:23:46.591Z,79.04
2022-12-24T19:26:17.251Z,79.30
2022-12-24T19:28:44.923Z,78.31
2022-12-24T19:31:20.854Z,78.86
2022-12-24T19:33:53.820Z,78.78
2022-12-24T19:36:24.238Z,78.94
2022-12-24T19:38:50.920Z,79.03
2022-12-24T19:41:19.976Z,79.24
2022-12-24T19:43:48.883Z,79.25
2022-12-24T19:46:19.959Z,79.74
2022-12-24T19:48:56.976Z,78.83
2022-12-24T19:51:25.201Z,79.37
2022-12-24T19:53:54.510Z,79.97
2022-12-24T19:56:25.422Z,79.56
2022-12-24T19:58:52.355Z,79.51
2022-12-24T20:01:24.340Z,79.52
2022-12-24T20:03:53.014Z,79.69
2022-12-24T20:06:21.924Z,82.19
2022-12-24T20:08:48.997Z,85.73
2022-12-24T20:11:18.223Z,86.63
2022-12-24T20:13:46.267Z,87.73
2022-12-24T20:16:19.263Z,88.00
2022-12-24T20:18:57.790Z,87.02
2022-12-24T20:21:25.679Z,85.44
2022-12-24T20:23:52.937Z,84.96
2022-12-24T20:26:22.554Z,84.51
2022-12-24T20:28:49.895Z,84.17
2022-12-24T20:31:28.036Z,83.28
2022-12-24T20:33:57.388Z,84.12
2022-12-24T20:36:25.934Z,84.08
2022-12-24T20:38:52.760Z,85.16
2022-12-24T20:41:21.788Z,85.07
2022-12-24T20:43:49.209Z,84.89
2022-12-24T20:46:17.899Z,84.47
2022-12-24T20:48:44.865Z,83.67
2022-12-24T20:51:22.785Z,83.19
2022-12-24T20:53:52.728Z,82.43
2022-12-24T20:56:19.817Z,82.69
2022-12-24T20:58:46.653Z,83.02
2022-12-24T21:01:17.772Z,83.11
2022-12-24T21:03:45.041Z,82.34
2022-12-24T21:06:11.832Z,82.18
2022-12-24T21:08:38.616Z,81.78
2022-12-24T21:11:05.352Z,82.29
2022-12-24T21:13:34.421Z,82.09
2022-12-24T21:16:01.303Z,80.93
2022-12-24T21:18:28.091Z,80.49
2022-12-24T21:20:54.792Z,80.84
2022-12-24T21:23:24.471Z,80.58
2022-12-24T21:26:00.206Z,80.36
2022-12-24T21:28:28.156Z,79.80
2022-12-24T21:30:55.083Z,80.20
2022-12-24T21:33:22.615Z,80.80
2022-12-24T21:35:49.316Z,81.01
2022-12-24T21:38:16.152Z,81.32
2022-12-24T21:40:42.804Z,81.17
2022-12-24T21:43:10.192Z,79.65
2022-12-24T21:45:40.680Z,80.00
2022-12-24T21:48:07.339Z,80.67
2022-12-24T21:50:34.362Z,82.10
2022-12-24T21:53:01.717Z,82.26
2022-12-24T21:55:28.445Z,83.42
2022-12-24T21:57:55.549Z,84.07
2022-12-24T22:00:22.220Z,84.61
2022-12-24T22:02:51.930Z,84.23
2022-12-24T22:05:19.643Z,84.34
2022-12-24T22:07:46.549Z,82.39
2022-12-24T22:10:15.309Z,83.03
2022-12-24T22:12:42.133Z,82.58
2022-12-24T22:15:09.071Z,82.10
2022-12-24T22:17:35.767Z,82.85
2022-12-24T22:20:02.534Z,83.23
2022-12-24T22:22:29.793Z,83.00
2022-12-24T22:24:56.373Z,83.09
2022-12-24T22:27:23.125Z,82.87
2022-12-24T22:29:49.718Z,82.54
2022-12-24T22:32:16.377Z,83.22
2022-12-24T22:34:43.201Z,83.86
2022-12-24T22:37:09.916Z,84.45
2022-12-24T22:39:36.557Z,83.95
2022-12-24T22:42:03.285Z,83.15
2022-12-24T22:44:29.983Z,82.63
2022-12-24T22:46:56.745Z,81.92
2022-12-24T22:49:23.804Z,82.26
2022-12-24T22:51:50.424Z,82.24
2022-12-24T22:54:17.025Z,82.76
2022-12-24T22:56:44.125Z,82.57
2022-12-24T22:59:14.293Z,82.58
2022-12-24T23:01:44.379Z,82.78
2022-12-24T23:04:12.166Z,83.33
2022-12-24T23:06:39.377Z,83.96
2022-12-24T23:09:08.488Z,84.81
2022-12-24T23:11:35.777Z,84.46
2022-12-24T23:14:02.498Z,85.46
2022-12-24T23:16:31.845Z,85.63
2022-12-24T23:19:00.649Z,85.83
2022-12-24T23:21:28.095Z,85.95
2022-12-24T23:23:57.342Z,86.34
2022-12-24T23:26:24.820Z,85.60
2022-12-24T23:28:51.629Z,85.72
2022-12-24T23:31:19.777Z,85.67
2022-12-24T23:33:47.020Z,85.53
2022-12-24T23:36:14.052Z,85.20
2022-12-24T23:38:41.024Z,85.76
2022-12-24T23:41:09.413Z,86.13
2022-12-24T23:43:37.160Z,86.94
2022-12-24T23:46:04.435Z,87.85
2022-12-24T23:48:31.206Z,87.60
2022-12-24T23:51:26.304Z,87.99
2022-12-24T23:53:54.980Z,87.93
2022-12-24T23:56:23.710Z,87.31
2022-12-24T23:58:50.770Z,87.09
